createdAt,value
2017-10-29T00:00:28.987Z,20.47
2017-10-29T00:02:56.587Z,22.30
2017-10-29T00:05:25.453Z,19.70
2017-10-29T00:07:53.087Z,18.27
2017-10-29T00:10:20.663Z,17.37
2017-10-29T00:12:48.925Z,18.57
2017-10-29T00:15:16.551Z,17.03
2017-10-29T00:17:44.164Z,15.00
2017-10-29T00:20:11.892Z,16.50
2017-10-29T00:22:39.474Z,15.83
2017-10-29T00:25:07.805Z,15.30
2017-10-29T00:27:35.406Z,14.30
2017-10-29T00:30:03.899Z,14.30
2017-10-29T00:32:32.258Z,15.40
2017-10-29T00:35:00.599Z,15.20
2017-10-29T00:37:28.170Z,12.60
2017-10-29T00:39:55.923Z,12.00
2017-10-29T00:42:23.693Z,12.57
2017-10-29T00:44:51.548Z,12.67
2017-10-29T00:47:19.120Z,11.43
2017-10-29T00:49:46.736Z,11.40
2017-10-29T00:52:15.068Z,11.60
2017-10-29T00:54:42.640Z,10.50
2017-10-29T00:57:10.238Z,10.20
2017-10-29T00:59:38.762Z,10.27
2017-10-29T01:02:07.072Z,10.77
2017-10-29T01:04:34.706Z,10.17
2017-10-29T01:07:02.260Z,9.97
2017-10-29T01:09:29.858Z,9.63
2017-10-29T01:11:57.420Z,10.47
2017-10-29T01:14:24.974Z,10.60
2017-10-29T01:16:53.345Z,12.90
2017-10-29T01:19:20.906Z,12.97
2017-10-29T01:21:48.482Z,13.60
2017-10-29T01:24:16.416Z,14.87
2017-10-29T01:26:44.076Z,16.33
2017-10-29T01:29:11.736Z,19.73
2017-10-29T01:31:39.314Z,18.23
2017-10-29T01:34:06.891Z,19.97
2017-10-29T01:36:34.466Z,18.53
2017-10-29T01:39:02.097Z,18.10
2017-10-29T01:41:29.679Z,18.60
2017-10-29T01:43:57.243Z,17.27
2017-10-29T01:46:24.879Z,17.90
2017-10-29T01:48:52.469Z,18.17
2017-10-29T01:51:20.054Z,17.90
2017-10-29T01:53:48.408Z,18.07
2017-10-29T01:56:15.965Z,18.00
2017-10-29T01:58:43.535Z,19.90
2017-10-29T02:01:11.105Z,18.73
2017-10-29T02:03:38.666Z,21.10
2017-10-29T02:06:06.262Z,19.90
2017-10-29T02:08:34.579Z,20.20
2017-10-29T02:11:02.322Z,21.00
2017-10-29T02:13:29.936Z,21.20
2017-10-29T02:15:58.364Z,22.60
2017-10-29T02:18:25.951Z,23.00
2017-10-29T02:20:53.680Z,23.50
2017-10-29T02:23:21.286Z,22.20
2017-10-29T02:25:48.861Z,23.80
2017-10-29T02:28:17.233Z,19.90
2017-10-29T02:30:44.799Z,21.00
2017-10-29T02:33:12.380Z,21.73
2017-10-29T02:35:40.819Z,22.13
2017-10-29T02:38:08.407Z,20.40
2017-10-29T02:40:35.979Z,22.00
2017-10-29T02:43:04.341Z,19.63
2017-10-29T02:45:31.900Z,20.77
2017-10-29T02:47:59.483Z,19.10
2017-10-29T02:50:27.918Z,19.20
2017-10-29T02:52:55.603Z,19.67
2017-10-29T02:55:23.159Z,19.17
2017-10-29T02:57:50.856Z,19.70
2017-10-29T03:00:19.194Z,17.23
2017-10-29T03:02:46.742Z,17.20
2017-10-29T03:05:14.333Z,15.57
2017-10-29T03:07:42.050Z,16.80
2017-10-29T03:10:09.729Z,14.93
2017-10-29T03:12:37.320Z,10.80
2017-10-29T03:15:04.894Z,11.03
2017-10-29T03:17:32.469Z,11.20
2017-10-29T03:20:00.855Z,12.13
2017-10-29T03:22:28.539Z,10.73
2017-10-29T03:24:56.206Z,9.93
2017-10-29T03:27:23.782Z,10.90
2017-10-29T03:29:51.360Z,10.13
2017-10-29T03:32:18.922Z,10.60
2017-10-29T03:34:46.482Z,11.20
2017-10-29T03:37:14.238Z,11.63
2017-10-29T03:39:41.877Z,10.27
2017-10-29T03:42:09.441Z,10.50
2017-10-29T03:44:37.038Z,9.13
2017-10-29T03:47:04.627Z,7.97
2017-10-29T03:49:32.950Z,6.00
2017-10-29T03:52:00.509Z,5.60
2017-10-29T03:54:28.170Z,3.93
2017-10-29T03:56:55.748Z,5.40
2017-10-29T03:59:23.334Z,4.10
2017-10-29T04:01:50.999Z,3.80
2017-10-29T04:04:18.559Z,3.00
2017-10-29T04:06:46.254Z,3.40
2017-10-29T04:09:13.937Z,5.97
2017-10-29T04:11:41.498Z,5.50
2017-10-29T04:14:09.074Z,5.40
2017-10-29T04:16:36.635Z,5.70
2017-10-29T04:19:04.230Z,4.50
2017-10-29T04:21:31.946Z,4.63
2017-10-29T04:23:59.622Z,3.10
2017-10-29T04:26:27.180Z,3.80
2017-10-29T04:28:54.767Z,3.20
2017-10-29T04:31:22.329Z,3.80
2017-10-29T04:33:50.805Z,3.17
2017-10-29T04:36:18.439Z,3.40
2017-10-29T04:38:46.001Z,3.80
2017-10-29T04:41:13.570Z,3.50
2017-10-29T04:43:41.142Z,3.00
2017-10-29T04:46:08.762Z,2.70
2017-10-29T04:48:36.315Z,2.80
2017-10-29T04:51:04.631Z,2.30
2017-10-29T04:53:32.224Z,2.60
2017-10-29T04:55:59.844Z,2.53
2017-10-29T04:58:27.411Z,3.03
2017-10-29T05:00:55.118Z,1.90
2017-10-29T05:03:22.667Z,2.33
2017-10-29T05:05:50.324Z,2.37
2017-10-29T05:08:17.889Z,2.60
2017-10-29T05:10:45.515Z,2.70
2017-10-29T05:13:13.078Z,2.17
2017-10-29T05:15:40.946Z,2.40
2017-10-29T05:18:08.540Z,2.37
2017-10-29T05:20:36.258Z,2.30
2017-10-29T05:23:03.826Z,2.90
2017-10-29T05:25:31.400Z,2.50
2017-10-29T05:27:58.989Z,2.20
2017-10-29T05:30:26.690Z,2.83
2017-10-29T05:32:54.266Z,2.60
2017-10-29T05:35:22.603Z,2.67
2017-10-29T05:37:50.163Z,2.77
2017-10-29T05:40:17.743Z,2.57
2017-10-29T05:42:46.121Z,2.37
2017-10-29T05:45:13.678Z,2.60
2017-10-29T05:47:41.379Z,2.67
2017-10-29T05:50:08.954Z,2.03
2017-10-29T05:52:36.610Z,3.00
2017-10-29T05:55:04.180Z,2.57
2017-10-29T05:57:31.757Z,3.20
2017-10-29T05:59:59.318Z,3.80
2017-10-29T06:02:26.899Z,2.77
2017-10-29T06:04:54.451Z,2.77
2017-10-29T06:07:22.455Z,3.70
2017-10-29T06:09:50.986Z,4.70
2017-10-29T06:12:18.551Z,3.50
2017-10-29T06:14:46.225Z,3.30
2017-10-29T06:17:13.879Z,2.70
2017-10-29T06:19:41.519Z,3.57
2017-10-29T06:22:09.153Z,5.07
2017-10-29T06:24:37.526Z,4.03
2017-10-29T06:27:05.879Z,3.50
2017-10-29T06:29:33.443Z,4.07
2017-10-29T06:32:01.006Z,3.57
2017-10-29T06:34:28.579Z,4.40
2017-10-29T06:36:56.922Z,4.60
2017-10-29T06:39:24.535Z,3.57
2017-10-29T06:41:52.887Z,3.73
2017-10-29T06:44:20.515Z,6.13
2017-10-29T06:46:48.096Z,4.57
2017-10-29T06:49:15.942Z,4.53
2017-10-29T06:51:43.565Z,3.83
2017-10-29T06:54:11.883Z,4.20
2017-10-29T06:56:39.509Z,4.50
2017-10-29T06:59:07.855Z,4.87
2017-10-29T07:01:35.408Z,5.77
2017-10-29T07:04:02.990Z,4.50
2017-10-29T07:06:30.543Z,4.47
2017-10-29T07:08:58.203Z,4.67
2017-10-29T07:11:25.766Z,4.00
2017-10-29T07:13:53.602Z,4.67
2017-10-29T07:16:21.169Z,5.47
2017-10-29T07:18:48.760Z,6.03
2017-10-29T07:21:16.349Z,4.97
2017-10-29T07:23:43.925Z,5.40
2017-10-29T07:26:12.304Z,4.93
2017-10-29T07:28:40.663Z,4.50
2017-10-29T07:31:08.250Z,5.20
2017-10-29T07:33:36.630Z,5.77
2017-10-29T07:36:04.282Z,4.63
2017-10-29T07:38:32.624Z,5.50
2017-10-29T07:41:00.198Z,5.13
2017-10-29T07:43:27.808Z,6.57
2017-10-29T07:45:55.566Z,5.80
2017-10-29T07:48:23.151Z,4.80
2017-10-29T07:50:50.762Z,5.47
2017-10-29T07:53:18.314Z,5.83
2017-10-29T07:55:45.895Z,4.63
2017-10-29T07:58:14.251Z,5.70
2017-10-29T08:00:41.815Z,5.40
2017-10-29T08:03:09.414Z,5.10
2017-10-29T08:05:37.771Z,6.33
2017-10-29T08:08:05.358Z,4.70
2017-10-29T08:10:33.735Z,5.70
2017-10-29T08:13:02.082Z,5.60
2017-10-29T08:15:29.702Z,5.00
2017-10-29T08:17:57.279Z,6.43
2017-10-29T08:20:24.874Z,6.60
2017-10-29T08:22:52.494Z,5.60
2017-10-29T08:25:20.069Z,6.43
2017-10-29T08:27:47.682Z,6.60
2017-10-29T08:30:16.015Z,7.13
2017-10-29T08:32:43.609Z,6.60
2017-10-29T08:35:11.835Z,6.50
2017-10-29T08:37:39.455Z,6.87
2017-10-29T08:40:07.793Z,6.03
2017-10-29T08:42:35.357Z,6.90
2017-10-29T08:45:03.001Z,6.67
2017-10-29T08:47:30.558Z,6.30
2017-10-29T08:49:58.122Z,5.83
2017-10-29T08:52:25.722Z,6.80
2017-10-29T08:54:53.326Z,6.80
2017-10-29T08:57:21.729Z,5.50
2017-10-29T08:59:49.324Z,5.83
2017-10-29T09:02:16.913Z,7.93
2017-10-29T09:04:45.234Z,6.00
2017-10-29T09:07:12.809Z,5.17
2017-10-29T09:09:40.379Z,4.40
2017-10-29T09:12:07.999Z,4.97
2017-10-29T09:14:35.619Z,5.67
2017-10-29T09:17:03.444Z,5.70
2017-10-29T09:19:31.090Z,5.63
2017-10-29T09:21:58.666Z,6.00
2017-10-29T09:24:26.268Z,7.10
2017-10-29T09:26:54.281Z,5.37
2017-10-29T09:29:21.983Z,7.17
2017-10-29T09:31:49.858Z,5.30
2017-10-29T09:34:17.430Z,5.57
2017-10-29T09:36:45.846Z,6.47
2017-10-29T09:39:14.380Z,6.00
2017-10-29T09:41:42.096Z,7.50
2017-10-29T09:44:10.465Z,5.03
2017-10-29T09:46:38.646Z,6.27
2017-10-29T09:49:07.012Z,4.47
2017-10-29T09:51:34.600Z,5.73
2017-10-29T09:54:03.123Z,5.10
2017-10-29T09:56:30.739Z,5.00
2017-10-29T09:58:59.085Z,5.03
2017-10-29T10:01:28.170Z,5.20
2017-10-29T10:03:55.781Z,4.60
2017-10-29T10:06:24.214Z,5.23
2017-10-29T10:08:51.800Z,4.60
2017-10-29T10:11:19.460Z,4.60
2017-10-29T10:13:47.098Z,4.80
2017-10-29T10:16:14.665Z,5.10
2017-10-29T10:18:42.263Z,3.97
2017-10-29T10:21:10.625Z,4.50
2017-10-29T10:23:38.441Z,4.37
2017-10-29T10:26:06.008Z,4.17
2017-10-29T10:28:33.585Z,5.00
2017-10-29T10:31:01.245Z,4.20
2017-10-29T10:33:28.858Z,3.83
2017-10-29T10:35:57.220Z,4.00
2017-10-29T10:38:24.818Z,4.70
2017-10-29T10:40:52.414Z,4.43
2017-10-29T10:43:20.010Z,5.33
2017-10-29T10:45:47.602Z,3.90
2017-10-29T10:48:15.199Z,4.73
2017-10-29T10:50:42.769Z,4.87
2017-10-29T10:53:10.367Z,5.20
2017-10-29T10:55:38.751Z,5.07
2017-10-29T10:58:07.127Z,6.23
2017-10-29T11:00:34.703Z,3.60
2017-10-29T11:03:02.398Z,5.70
2017-10-29T11:05:30.057Z,4.93
2017-10-29T11:07:57.654Z,5.50
2017-10-29T11:10:26.106Z,3.53
2017-10-29T11:12:53.719Z,3.93
2017-10-29T11:15:22.097Z,3.00
2017-10-29T11:17:50.476Z,3.53
2017-10-29T11:20:18.909Z,3.97
2017-10-29T11:22:46.509Z,4.57
2017-10-29T11:25:14.118Z,5.30
2017-10-29T11:27:41.739Z,4.40
2017-10-29T11:30:09.331Z,3.37
2017-10-29T11:32:36.942Z,3.30
2017-10-29T11:35:04.571Z,4.00
2017-10-29T11:37:32.155Z,5.60
2017-10-29T11:39:59.808Z,4.07
2017-10-29T11:42:27.408Z,4.60
2017-10-29T11:44:55.763Z,4.00
2017-10-29T11:47:23.373Z,4.37
2017-10-29T11:49:51.697Z,4.83
2017-10-29T11:52:19.438Z,4.30
2017-10-29T11:54:47.026Z,3.47
2017-10-29T11:57:14.823Z,5.80
2017-10-29T11:59:42.496Z,3.73
2017-10-29T12:02:10.812Z,3.93
2017-10-29T12:04:38.452Z,3.90
2017-10-29T12:07:06.041Z,3.67
2017-10-29T12:09:33.608Z,4.00
2017-10-29T12:12:01.196Z,3.00
2017-10-29T12:14:28.773Z,3.53
2017-10-29T12:16:56.379Z,3.43
2017-10-29T12:19:23.982Z,3.40
2017-10-29T12:21:51.577Z,3.33
2017-10-29T12:24:19.976Z,3.37
2017-10-29T12:26:47.699Z,3.70
2017-10-29T12:29:16.058Z,3.37
2017-10-29T12:31:43.643Z,3.50
2017-10-29T12:34:11.192Z,3.00
2017-10-29T12:36:39.603Z,3.10
2017-10-29T12:39:07.954Z,4.33
2017-10-29T12:41:35.535Z,3.90
2017-10-29T12:44:03.882Z,3.83
2017-10-29T12:46:31.480Z,2.77
2017-10-29T12:48:59.850Z,5.03
2017-10-29T12:51:27.428Z,4.20
2017-10-29T12:53:55.977Z,3.83
2017-10-29T12:56:23.598Z,2.63
2017-10-29T12:58:51.189Z,2.30
2017-10-29T13:01:18.842Z,2.50
2017-10-29T13:03:46.604Z,3.00
2017-10-29T13:06:14.172Z,4.30
2017-10-29T13:08:41.787Z,4.00
2017-10-29T13:11:10.137Z,2.80
2017-10-29T13:13:37.713Z,3.43
2017-10-29T13:16:05.277Z,5.40
2017-10-29T13:18:33.629Z,3.30
2017-10-29T13:21:01.251Z,3.43
2017-10-29T13:23:29.617Z,2.60
2017-10-29T13:25:57.946Z,3.20
2017-10-29T13:28:25.558Z,3.30
2017-10-29T13:30:53.927Z,3.07
2017-10-29T13:33:22.275Z,3.07
2017-10-29T13:35:50.504Z,2.20
2017-10-29T13:38:18.895Z,2.67
2017-10-29T13:40:46.514Z,2.63
2017-10-29T13:43:14.890Z,2.00
2017-10-29T13:45:42.466Z,2.50
2017-10-29T13:48:10.843Z,2.50
2017-10-29T13:50:38.415Z,3.40
2017-10-29T13:53:06.759Z,3.07
2017-10-29T13:55:34.350Z,2.50
2017-10-29T13:58:01.928Z,3.80
2017-10-29T14:00:30.260Z,3.40
2017-10-29T14:02:57.946Z,2.37
2017-10-29T14:05:26.274Z,2.13
2017-10-29T14:07:53.947Z,3.30
2017-10-29T14:10:21.574Z,2.90
2017-10-29T14:12:50.092Z,2.60
2017-10-29T14:15:18.480Z,3.13
2017-10-29T14:17:46.919Z,2.30
2017-10-29T14:20:14.544Z,3.20
2017-10-29T14:22:42.108Z,3.43
2017-10-29T14:25:09.730Z,2.83
2017-10-29T14:27:38.093Z,4.50
2017-10-29T14:30:06.459Z,4.90
2017-10-29T14:32:34.052Z,4.00
2017-10-29T14:35:01.642Z,3.83
2017-10-29T14:37:29.283Z,3.87
2017-10-29T14:39:57.613Z,2.97
2017-10-29T14:42:25.359Z,2.53
2017-10-29T14:44:52.947Z,3.00
2017-10-29T14:47:20.512Z,3.03
2017-10-29T14:49:48.124Z,2.60
2017-10-29T14:52:16.493Z,3.33
2017-10-29T14:54:44.078Z,3.40
2017-10-29T14:57:11.654Z,4.00
2017-10-29T14:59:39.243Z,3.00
2017-10-29T15:02:06.896Z,3.50
2017-10-29T15:04:34.594Z,3.30
2017-10-29T15:07:02.218Z,3.73
2017-10-29T15:09:29.804Z,3.67
2017-10-29T15:11:58.201Z,3.40
2017-10-29T15:14:25.758Z,3.77
2017-10-29T15:16:54.091Z,4.00
2017-10-29T15:19:21.737Z,3.90
2017-10-29T15:21:49.324Z,3.10
2017-10-29T15:24:17.032Z,3.20
2017-10-29T15:26:44.628Z,5.50
2017-10-29T15:29:13.164Z,2.87
2017-10-29T15:31:41.539Z,3.57
2017-10-29T15:34:09.250Z,4.17
2017-10-29T15:36:36.826Z,4.03
2017-10-29T15:39:04.423Z,3.23
2017-10-29T15:41:32.027Z,3.43
2017-10-29T15:44:00.448Z,3.70
2017-10-29T15:46:28.049Z,4.10
2017-10-29T15:48:55.671Z,3.07
2017-10-29T15:51:23.267Z,3.03
2017-10-29T15:53:51.688Z,8.80
2017-10-29T15:56:19.303Z,9.07
2017-10-29T15:58:46.878Z,6.83
2017-10-29T16:01:15.243Z,5.70
2017-10-29T16:03:42.851Z,4.83
2017-10-29T16:06:10.434Z,4.57
2017-10-29T16:08:37.978Z,3.70
2017-10-29T16:11:05.558Z,4.27
2017-10-29T16:13:33.157Z,3.47
2017-10-29T16:16:01.508Z,4.20
2017-10-29T16:18:29.109Z,4.10
2017-10-29T16:20:57.579Z,5.13
2017-10-29T16:23:25.155Z,4.63
2017-10-29T16:25:53.541Z,3.03
2017-10-29T16:28:21.232Z,3.70
2017-10-29T16:30:48.905Z,4.47
2017-10-29T16:33:16.518Z,4.13
2017-10-29T16:35:44.914Z,3.60
2017-10-29T16:38:12.518Z,5.10
2017-10-29T16:40:40.242Z,5.03
2017-10-29T16:43:07.929Z,4.47
2017-10-29T16:45:35.561Z,4.78
2017-10-29T16:48:03.958Z,4.90
2017-10-29T16:50:31.531Z,5.75
2017-10-29T16:52:59.171Z,4.50
2017-10-29T16:55:27.564Z,5.12
2017-10-29T16:57:56.613Z,3.60
2017-10-29T17:00:24.223Z,3.53
2017-10-29T17:02:52.593Z,3.25
2017-10-29T17:05:20.173Z,3.50
2017-10-29T17:07:48.711Z,4.23
2017-10-29T17:10:17.420Z,3.20
2017-10-29T17:12:45.037Z,3.15
2017-10-29T17:15:12.632Z,4.50
2017-10-29T17:17:40.246Z,4.40
2017-10-29T17:20:07.880Z,4.10
2017-10-29T17:22:36.110Z,5.93
2017-10-29T17:25:03.717Z,6.55
2017-10-29T17:27:32.078Z,7.65
2017-10-29T17:30:00.499Z,5.28
2017-10-29T17:32:28.074Z,4.65
2017-10-29T17:34:56.160Z,6.18
2017-10-29T17:37:24.560Z,5.37
2017-10-29T17:39:52.908Z,4.70
2017-10-29T17:42:20.509Z,4.12
2017-10-29T17:44:49.040Z,5.18
2017-10-29T17:47:16.605Z,4.18
2017-10-29T17:49:44.196Z,4.20
2017-10-29T17:52:11.822Z,4.10
2017-10-29T17:54:39.404Z,5.10
2017-10-29T17:57:06.986Z,6.28
2017-10-29T17:59:35.450Z,5.43
2017-10-29T18:02:03.056Z,5.47
2017-10-29T18:04:30.758Z,4.45
2017-10-29T18:06:58.358Z,5.82
2017-10-29T18:09:26.693Z,4.85
2017-10-29T18:11:54.303Z,5.18
2017-10-29T18:14:22.662Z,4.37
2017-10-29T18:16:50.278Z,4.30
2017-10-29T18:19:17.872Z,5.82
2017-10-29T18:21:45.513Z,4.50
2017-10-29T18:24:13.121Z,5.10
2017-10-29T18:26:40.745Z,4.45
2017-10-29T18:29:08.312Z,4.95
2017-10-29T18:31:35.920Z,5.15
2017-10-29T18:34:03.489Z,5.50
2017-10-29T18:36:31.885Z,4.87
2017-10-29T18:38:59.471Z,5.37
2017-10-29T18:41:27.083Z,6.93
2017-10-29T18:43:54.656Z,7.43
2017-10-29T18:46:22.978Z,5.35
2017-10-29T18:48:50.577Z,5.32
2017-10-29T18:51:18.135Z,8.48
2017-10-29T18:53:46.600Z,8.98
2017-10-29T18:56:14.269Z,8.45
2017-10-29T18:58:41.891Z,6.15
2017-10-29T19:01:09.544Z,6.18
2017-10-29T19:03:37.898Z,5.82
2017-10-29T19:06:05.538Z,5.47
2017-10-29T19:08:33.275Z,6.45
2017-10-29T19:11:00.865Z,5.45
2017-10-29T19:13:28.482Z,4.55
2017-10-29T19:15:56.194Z,5.90
2017-10-29T19:18:23.790Z,5.40
2017-10-29T19:20:51.363Z,5.22
2017-10-29T19:23:19.712Z,4.18
2017-10-29T19:25:47.406Z,6.28
2017-10-29T19:28:15.745Z,5.25
2017-10-29T19:30:43.339Z,5.43
2017-10-29T19:33:11.027Z,5.22
2017-10-29T19:35:39.436Z,4.72
2017-10-29T19:38:06.991Z,5.70
2017-10-29T19:40:34.701Z,6.47
2017-10-29T19:43:02.575Z,5.65
2017-10-29T19:45:30.188Z,5.03
2017-10-29T19:47:57.782Z,5.20
2017-10-29T19:50:25.682Z,4.45
2017-10-29T19:52:53.284Z,4.12
2017-10-29T19:55:20.927Z,5.32
2017-10-29T19:57:48.547Z,5.03
2017-10-29T20:00:16.942Z,4.28
2017-10-29T20:02:44.559Z,3.55
2017-10-29T20:05:12.495Z,4.40
2017-10-29T20:07:40.201Z,3.35
2017-10-29T20:10:07.787Z,4.78
2017-10-29T20:12:36.171Z,4.07
2017-10-29T20:15:04.614Z,4.45
2017-10-29T20:17:32.249Z,4.12
2017-10-29T20:20:00.208Z,5.68
2017-10-29T20:22:27.933Z,3.72
2017-10-29T20:24:56.250Z,3.50
2017-10-29T20:27:23.830Z,4.03
2017-10-29T20:29:51.419Z,4.07
2017-10-29T20:32:19.067Z,4.07
2017-10-29T20:34:56.634Z,4.60
2017-10-29T20:37:24.974Z,4.47
2017-10-29T20:39:52.572Z,4.60
2017-10-29T20:42:20.234Z,4.45
2017-10-29T20:44:47.865Z,4.05
2017-10-29T20:47:15.464Z,3.72
2017-10-29T20:49:43.810Z,4.75
2017-10-29T20:52:11.403Z,4.15
2017-10-29T20:54:39.776Z,3.60
2017-10-29T20:57:08.205Z,4.40
2017-10-29T20:59:35.874Z,4.72
2017-10-29T21:02:03.632Z,3.17
2017-10-29T21:04:31.199Z,4.40
2017-10-29T21:07:00.644Z,4.35
2017-10-29T21:09:28.317Z,3.97
2017-10-29T21:11:55.924Z,3.90
2017-10-29T21:14:23.536Z,5.12
2017-10-29T21:16:51.882Z,4.18
2017-10-29T21:19:19.644Z,4.20
2017-10-29T21:21:47.484Z,4.87
2017-10-29T21:24:15.111Z,4.75
2017-10-29T21:26:42.702Z,3.70
2017-10-29T21:29:11.306Z,4.10
2017-10-29T21:31:39.060Z,4.93
2017-10-29T21:34:06.660Z,4.60
2017-10-29T21:36:34.242Z,4.65
2017-10-29T21:39:02.026Z,4.55
2017-10-29T21:41:30.400Z,3.80
2017-10-29T21:43:58.060Z,5.18
2017-10-29T21:46:25.759Z,4.60
2017-10-29T21:48:53.375Z,4.60
2017-10-29T21:51:20.983Z,4.30
2017-10-29T21:53:48.684Z,3.95
2017-10-29T21:56:16.255Z,3.87
2017-10-29T21:58:43.926Z,4.10
2017-10-29T22:01:11.508Z,3.33
2017-10-29T22:03:39.168Z,3.42
2017-10-29T22:06:07.953Z,5.05
2017-10-29T22:08:36.606Z,4.43
2017-10-29T22:11:06.923Z,3.62
2017-10-29T22:13:36.426Z,4.10
2017-10-29T22:16:06.095Z,4.72
2017-10-29T22:18:33.715Z,4.32
2017-10-29T22:21:01.348Z,3.83
2017-10-29T22:23:29.006Z,3.58
2017-10-29T22:25:57.926Z,4.03
2017-10-29T22:28:25.570Z,3.00
2017-10-29T22:30:53.154Z,5.87
2017-10-29T22:33:20.770Z,4.07
2017-10-29T22:35:48.338Z,4.30
2017-10-29T22:38:16.741Z,4.62
2017-10-29T22:40:44.338Z,2.85
2017-10-29T22:43:11.959Z,3.25
2017-10-29T22:45:40.319Z,3.95
2017-10-29T22:48:07.879Z,3.67
2017-10-29T22:50:35.546Z,4.62
2017-10-29T22:53:03.203Z,4.75
2017-10-29T22:55:30.942Z,4.70
2017-10-29T22:57:58.570Z,3.67
2017-10-29T23:00:26.343Z,4.25
2017-10-29T23:02:54.095Z,3.90
2017-10-29T23:05:33.593Z,3.20
2017-10-29T23:08:10.877Z,4.20
2017-10-29T23:10:39.086Z,4.07
2017-10-29T23:13:07.491Z,4.40
2017-10-29T23:15:35.047Z,4.37
2017-10-29T23:18:03.014Z,3.85
2017-10-29T23:20:31.371Z,3.70
2017-10-29T23:22:58.953Z,4.20
2017-10-29T23:25:27.294Z,4.18
2017-10-29T23:27:54.884Z,4.97
2017-10-29T23:30:22.642Z,4.00
2017-10-29T23:32:50.999Z,5.00
2017-10-29T23:35:18.595Z,3.80
2017-10-29T23:37:46.289Z,4.40
2017-10-29T23:40:14.713Z,3.35
2017-10-29T23:42:42.322Z,4.70
2017-10-29T23:45:10.719Z,4.18
2017-10-29T23:47:39.335Z,5.87
2017-10-29T23:50:07.062Z,5.32
2017-10-29T23:52:35.358Z,4.90
2017-10-29T23:55:02.921Z,3.70
2017-10-29T23:57:30.500Z,3.55
2017-10-29T23:59:58.131Z,4.25
